Fluvius Teign — 8PLU — position and weather

sailwx.info

Track history (hours):
 
Tides and Currents Weather Stations Pressure Air Temp Water Temp Dewpoint Dewpoint Depression Visibility Wind Speed Wind Dir Waves Ship Positions

Fluvius Teign

Last reported at 2017-Sep-22 01:05 UTC. Time now 2017-Sep-22 20:51 UTC.
Position N 52°53' E 001°35'.

Length 81 m; draft 3.4 m.

Type: Cargo ship. MMSI: 314021000.

Date/timePositionNaut miles runAvg speedWind from/ knotsBaromVisibWave heightAir tempDewpointWater temp
2017-Sep-22 01:05N 52°53' E 001°35'10 8.9
2017-Sep-22 00:00N 52°58' E 001°22'  
2017-Sep-19 00:20N 53°08' E 000°59'3 9.9
2017-Sep-19 00:00N 53°10' E 001°02'5 9.8
2017-Sep-18 23:30N 53°11' E 001°10'510.6
2017-Sep-18 23:00N 53°12' E 001°19'510.4
2017-Sep-18 22:30N 53°12' E 001°28'510.1
2017-Sep-18 22:00N 53°14' E 001°36'5 9.5
2017-Sep-18 21:30N 53°16' E 001°43'109 8.9
2017-Sep-18 09:14N 53°29' E 004°44'210.4
2017-Sep-18 09:00N 53°30' E 004°47'510.3
2017-Sep-18 08:30N 53°32' E 004°55'510.0
2017-Sep-18 08:00N 53°33' E 005°03'5 9.6
2017-Sep-18 07:30N 53°35' E 005°11'93 9.7
2017-Sep-17 21:59N 54°01' E 007°41'5 9.7
2017-Sep-17 21:28N 54°01' E 007°50'5 9.5
2017-Sep-17 20:57N 54°01' E 007°58'4 9.3
2017-Sep-17 20:30N 54°01' E 008°05'5 9.2
2017-Sep-17 20:00N 54°01' E 008°13'4 8.9
2017-Sep-17 19:30N 54°00' E 008°21'4 8.0
2017-Sep-17 19:00N 53°59' E 008°27'4 7.2
2017-Sep-17 18:30N 53°58' E 008°33'4 7.8
2017-Sep-17 18:00N 53°57' E 008°39'5 9.8
2017-Sep-17 17:30N 53°53' E 008°43'510.8
2017-Sep-17 17:00N 53°51' E 008°52'612.1
2017-Sep-17 16:30N 53°52' E 009°02'4 8.8
2017-Sep-17 16:01N 53°54' E 009°09'0 0.4
2017-Sep-17 15:31N 53°54' E 009°09'3 6.1
2017-Sep-17 15:00N 53°56' E 009°13'4 8.4
2017-Sep-17 14:30N 53°59' E 009°17'4 8.2
2017-Sep-17 14:00N 54°03' E 009°18'43 5.1
2017-Sep-17 05:40N 54°29' E 010°17'3 9.4
2017-Sep-17 05:24N 54°31' E 010°20'4 9.5
2017-Sep-17 05:00N 54°32' E 010°26'5 9.6
2017-Sep-17 04:30N 54°34' E 010°34'5 9.0
2017-Sep-17 04:00N 54°35' E 010°41'4 9.0
2017-Sep-17 03:30N 54°35' E 010°49'5 9.2
2017-Sep-17 03:00N 54°36' E 010°57'5 9.2
2017-Sep-17 02:30N 54°37' E 011°05'5 9.3
2017-Sep-17 02:00N 54°36' E 011°13'5 9.7
2017-Sep-17 01:30N 54°33' E 011°20'4 7.3
2017-Sep-17 01:00N 54°31' E 011°24'510.2
2017-Sep-17 00:30N 54°26' E 011°25'510.3
2017-Sep-17 00:00N 54°20' E 011°25'1210.0
2017-Sep-16 22:48N 54°08' E 011°26'3 9.8
2017-Sep-16 22:27N 54°05' E 011°27'4 8.3
2017-Sep-16 22:00N 54°02' E 011°24'4 7.3
2017-Sep-16 21:30N 53°59' E 011°20'4 8.7
2017-Sep-16 21:00N 53°56' E 011°25'2 2.9
2017-Sep-16 20:23N 53°54' E 011°27'0 0.0
2017-Sep-16 19:59N 53°54' E 011°27'0 0.0
2017-Sep-16 19:29N 53°54' E 011°27'0 0.0
2017-Sep-16 18:59N 53°54' E 011°27'0 0.0
2017-Sep-16 18:29N 53°54' E 011°27'0 0.0
2017-Sep-16 17:59N 53°54' E 011°27'0 0.1
2017-Sep-16 17:29N 53°54' E 011°27'0 0.1
2017-Sep-16 16:59N 53°54' E 011°27'0 0.0
2017-Sep-16 16:29N 53°54' E 011°27'0 0.0
2017-Sep-16 15:59N 53°54' E 011°27'0 0.0
2017-Sep-16 15:29N 53°54' E 011°27'0 0.0
2017-Sep-16 14:59N 53°54' E 011°27'0 0.0
2017-Sep-16 14:29N 53°54' E 011°27'0 0.0
2017-Sep-16 13:59N 53°54' E 011°27'0 0.0
2017-Sep-16 13:29N 53°54' E 011°27'0 0.0
2017-Sep-16 12:59N 53°54' E 011°27'0 0.0
2017-Sep-16 12:29N 53°54' E 011°27'0 0.0
2017-Sep-16 11:59N 53°54' E 011°27'0 0.0
2017-Sep-16 11:29N 53°54' E 011°27'0 0.0
2017-Sep-16 10:59N 53°54' E 011°27'0 0.0
2017-Sep-16 10:29N 53°54' E 011°27'0 0.0
2017-Sep-16 09:59N 53°54' E 011°27'0 0.0
2017-Sep-16 09:29N 53°54' E 011°27'0 0.0
2017-Sep-16 08:59N 53°54' E 011°27'0 0.0
2017-Sep-16 08:29N 53°54' E 011°27'0 0.0
2017-Sep-16 07:59N 53°54' E 011°27'0 0.0
2017-Sep-16 07:29N 53°54' E 011°27'0 0.3
2017-Sep-16 06:59N 53°54' E 011°28'0 0.3
2017-Sep-16 06:29N 53°54' E 011°28'0 0.0
2017-Sep-16 05:59N 53°54' E 011°28'0 0.0
2017-Sep-16 05:29N 53°54' E 011°28'0 0.0
2017-Sep-16 04:59N 53°54' E 011°28'0 0.0
2017-Sep-16 04:29N 53°54' E 011°28'0 0.0
2017-Sep-16 03:53N 53°54' E 011°28'0 0.0
2017-Sep-16 03:29N 53°54' E 011°28'0 0.0
2017-Sep-16 02:59N 53°54' E 011°28'0 0.0
2017-Sep-16 02:29N 53°54' E 011°28'0 0.0
2017-Sep-16 01:59N 53°54' E 011°28'0 0.0
2017-Sep-16 01:26N 53°54' E 011°28'0 0.0
2017-Sep-16 00:59N 53°54' E 011°28'0 0.0
2017-Sep-16 00:29N 53°54' E 011°28'0 0.0
2017-Sep-15 23:59N 53°54' E 011°28'0 0.0
2017-Sep-15 23:29N 53°54' E 011°28'0 0.0
2017-Sep-15 22:59N 53°54' E 011°28'0 0.0
2017-Sep-15 22:29N 53°54' E 011°28'0 0.0
2017-Sep-15 21:59N 53°54' E 011°28'0 0.9
2017-Sep-15 21:31N 53°54' E 011°27'3 6.2
2017-Sep-15 21:00N 53°57' E 011°24'4 8.1
2017-Sep-15 20:31N 53°60' E 011°20'4 7.8
2017-Sep-15 20:00N 54°02' E 011°25'4 8.1
2017-Sep-15 19:30N 54°07' E 011°27'5 9.4
2017-Sep-15 19:00N 54°09' E 011°33'5 9.4
2017-Sep-15 18:29N 54°12' E 011°40'610.0
2017-Sep-15 17:55N 54°13' E 011°49'410.0
2017-Sep-15 17:30N 54°13' E 011°56'6 7.7
2017-Sep-15 16:44N 54°11' E 012°06'2 6.9
2017-Sep-15 16:30N 54°09' E 012°06'2 3.6
2017-Sep-15 16:00N 54°07' E 012°05'0 0.1
2017-Sep-15 14:41N 54°07' E 012°05'0 0.0
2017-Sep-15 14:29N 54°07' E 012°05'0 0.0
2017-Sep-15 13:43N 54°07' E 012°05'0 0.0
2017-Sep-15 11:40N 54°07' E 012°05'0 0.0
2017-Sep-15 10:43N 54°07' E 012°05'0 0.0
2017-Sep-15 10:28N 54°07' E 012°05'0 0.0
2017-Sep-15 09:34N 54°07' E 012°05'0 0.1
2017-Sep-15 09:28N 54°07' E 012°05'0 0.0
2017-Sep-15 08:28N 54°07' E 012°05'0 0.0
2017-Sep-15 07:40N 54°07' E 012°05'0 0.0
2017-Sep-15 06:25N 54°07' E 012°05'0 0.0
2017-Sep-15 04:16N 54°07' E 012°05'0 0.0
2017-Sep-15 03:58N 54°07' E 012°05'0 0.0
2017-Sep-15 02:58N 54°07' E 012°05'0 0.0
2017-Sep-15 00:13N 54°07' E 012°05'0 0.0
2017-Sep-14 23:55N 54°07' E 012°05'0 0.0
2017-Sep-14 23:19N 54°07' E 012°05'0 0.0
2017-Sep-14 21:13N 54°07' E 012°05'0 0.0
2017-Sep-14 20:07N 54°07' E 012°05'0 0.0
2017-Sep-14 17:52N 54°07' E 012°05'0 0.0
2017-Sep-14 17:10N 54°07' E 012°05'0 0.0
2017-Sep-14 16:52N 54°07' E 012°05'0 0.0
2017-Sep-14 14:43N 54°07' E 012°05'0 0.0
2017-Sep-14 12:28N 54°07' E 012°05'0 0.0
2017-Sep-14 11:55N 54°07' E 012°05'0 0.0
2017-Sep-14 11:28N 54°07' E 012°05'0 0.0
2017-Sep-14 10:28N 54°07' E 012°05'0 0.0
2017-Sep-14 08:40N 54°07' E 012°05'0 0.0
2017-Sep-14 08:28N 54°07' E 012°05'0 0.0
2017-Sep-14 07:43N 54°07' E 012°05'0 0.0
2017-Sep-14 07:25N 54°07' E 012°05'0 0.0
2017-Sep-14 06:52N 54°07' E 012°05'0 0.0
2017-Sep-14 05:52N 54°07' E 012°05'0 0.0
2017-Sep-14 05:30N 54°07' E 012°05'0 0.8
2017-Sep-14 05:00N 54°07' E 012°06'6 2.1
2017-Sep-14 01:55N 54°12' E 011°60'0 0.0
2017-Sep-14 00:12N 54°12' E 011°60'0 0.0
2017-Sep-13 23:51N 54°12' E 011°60'0 0.0
2017-Sep-13 23:30N 54°12' E 011°60'0 0.0
2017-Sep-13 23:00N 54°12' E 011°60'13 5.2
2017-Sep-13 20:26N 54°21' E 011°42'4 9.3
2017-Sep-13 20:00N 54°22' E 011°36'5 9.0
2017-Sep-13 19:30N 54°24' E 011°29'4 9.0
2017-Sep-13 19:00N 54°28' E 011°23'5 9.9
2017-Sep-13 18:30N 54°32' E 011°19'510.0
2017-Sep-13 18:00N 54°34' E 011°11'510.1
2017-Sep-13 17:30N 54°35' E 011°03'5 9.7
2017-Sep-13 17:00N 54°34' E 010°54'5 9.3
2017-Sep-13 16:30N 54°34' E 010°46'5 9.5
2017-Sep-13 16:00N 54°33' E 010°38'5 9.6
2017-Sep-13 15:30N 54°32' E 010°30'48 6.7
2017-Sep-13 08:26N 54°08' E 009°20'3 8.2
2017-Sep-13 08:00N 54°04' E 009°19'4 8.4
2017-Sep-13 07:31N 54°00' E 009°18'4 8.2
2017-Sep-13 07:01N 53°57' E 009°14'0 0.9
2017-Sep-13 06:30N 53°56' E 009°13'2 3.9
2017-Sep-13 06:00N 53°55' E 009°11'2 4.1
2017-Sep-13 05:30N 53°54' E 009°09'0 0.7
2017-Sep-13 05:00N 53°53' E 009°08'4 7.1
2017-Sep-13 04:30N 53°52' E 009°03'611.1
2017-Sep-13 04:00N 53°50' E 008°54'510.7
2017-Sep-13 03:30N 53°51' E 008°45'611.0
2017-Sep-13 03:00N 53°56' E 008°39'510.5
2017-Sep-13 02:30N 53°58' E 008°31'611.0
2017-Sep-13 02:00N 53°59' E 008°22'510.6
2017-Sep-13 01:30N 53°59' E 008°13'510.0
2017-Sep-13 00:59N 53°58' E 008°05'510.0
2017-Sep-13 00:30N 53°57' E 007°57'5 9.9
2017-Sep-12 23:58N 53°56' E 007°48'5 9.8
2017-Sep-12 23:29N 53°55' E 007°40'80 8.3
2017-Sep-12 13:44N 53°33' E 005°29'2 8.7
2017-Sep-12 13:30N 53°33' E 005°26'5 9.1
2017-Sep-12 13:00N 53°31' E 005°18'5 9.3
2017-Sep-12 12:30N 53°30' E 005°11'5 9.5
2017-Sep-12 12:00N 53°28' E 005°04'5 9.8
2017-Sep-12 11:30N 53°26' E 004°56'5 9.8
2017-Sep-12 11:00N 53°24' E 004°48'4 8.9
2017-Sep-12 10:30N 53°22' E 004°43'13 9.1
2017-Sep-12 09:04N 53°10' E 004°32'2 9.4
2017-Sep-12 08:49N 53°08' E 004°30'3 9.4
2017-Sep-12 08:29N 53°05' E 004°28'5 9.5
2017-Sep-12 08:00N 53°01' E 004°24'5 9.5
2017-Sep-12 07:30N 52°57' E 004°20'5 9.6
2017-Sep-12 07:00N 52°53' E 004°16'5 9.8
2017-Sep-12 06:30N 52°49' E 004°11'5 9.9
2017-Sep-12 06:00N 52°45' E 004°06'5 9.9
2017-Sep-12 05:30N 52°42' E 004°00'5 9.5
2017-Sep-12 05:00N 52°38' E 003°55'5 9.2
2017-Sep-12 04:30N 52°35' E 003°50'5 8.8
2017-Sep-12 03:59N 52°32' E 003°45'  
Track history (hours):
 
Tides and Currents Weather Stations Pressure Air Temp Water Temp Dewpoint Dewpoint Depression Visibility Wind Speed Wind Dir Waves Ship Positions

Fluvius Teign

Last reported at 2017-Sep-22 01:05 UTC. Time now 2017-Sep-22 20:51 UTC.
Position N 52°53' E 001°35'.

Length 81 m; draft 3.4 m.

Type: Cargo ship. MMSI: 314021000.

Date/timePositionNaut miles runAvg speedWind from/ knotsBaromVisibWave heightAir tempDewpointWater temp
2017-Sep-22 01:05N 52°53' E 001°35'10 8.9
2017-Sep-22 00:00N 52°58' E 001°22'  
2017-Sep-19 00:20N 53°08' E 000°59'3 9.9
2017-Sep-19 00:00N 53°10' E 001°02'5 9.8
2017-Sep-18 23:30N 53°11' E 001°10'510.6
2017-Sep-18 23:00N 53°12' E 001°19'510.4
2017-Sep-18 22:30N 53°12' E 001°28'510.1
2017-Sep-18 22:00N 53°14' E 001°36'5 9.5
2017-Sep-18 21:30N 53°16' E 001°43'109 8.9
2017-Sep-18 09:14N 53°29' E 004°44'210.4
2017-Sep-18 09:00N 53°30' E 004°47'510.3
2017-Sep-18 08:30N 53°32' E 004°55'510.0
2017-Sep-18 08:00N 53°33' E 005°03'5 9.6
2017-Sep-18 07:30N 53°35' E 005°11'93 9.7
2017-Sep-17 21:59N 54°01' E 007°41'5 9.7
2017-Sep-17 21:28N 54°01' E 007°50'5 9.5
2017-Sep-17 20:57N 54°01' E 007°58'4 9.3
2017-Sep-17 20:30N 54°01' E 008°05'5 9.2
2017-Sep-17 20:00N 54°01' E 008°13'4 8.9
2017-Sep-17 19:30N 54°00' E 008°21'4 8.0
2017-Sep-17 19:00N 53°59' E 008°27'4 7.2
2017-Sep-17 18:30N 53°58' E 008°33'4 7.8
2017-Sep-17 18:00N 53°57' E 008°39'5 9.8
2017-Sep-17 17:30N 53°53' E 008°43'510.8
2017-Sep-17 17:00N 53°51' E 008°52'612.1
2017-Sep-17 16:30N 53°52' E 009°02'4 8.8
2017-Sep-17 16:01N 53°54' E 009°09'0 0.4
2017-Sep-17 15:31N 53°54' E 009°09'3 6.1
2017-Sep-17 15:00N 53°56' E 009°13'4 8.4
2017-Sep-17 14:30N 53°59' E 009°17'4 8.2
2017-Sep-17 14:00N 54°03' E 009°18'43 5.1
2017-Sep-17 05:40N 54°29' E 010°17'3 9.4
2017-Sep-17 05:24N 54°31' E 010°20'4 9.5
2017-Sep-17 05:00N 54°32' E 010°26'5 9.6
2017-Sep-17 04:30N 54°34' E 010°34'5 9.0
2017-Sep-17 04:00N 54°35' E 010°41'4 9.0
2017-Sep-17 03:30N 54°35' E 010°49'5 9.2
2017-Sep-17 03:00N 54°36' E 010°57'5 9.2
2017-Sep-17 02:30N 54°37' E 011°05'5 9.3
2017-Sep-17 02:00N 54°36' E 011°13'5 9.7
2017-Sep-17 01:30N 54°33' E 011°20'4 7.3
2017-Sep-17 01:00N 54°31' E 011°24'510.2
2017-Sep-17 00:30N 54°26' E 011°25'510.3
2017-Sep-17 00:00N 54°20' E 011°25'1210.0
2017-Sep-16 22:48N 54°08' E 011°26'3 9.8
2017-Sep-16 22:27N 54°05' E 011°27'4 8.3
2017-Sep-16 22:00N 54°02' E 011°24'4 7.3
2017-Sep-16 21:30N 53°59' E 011°20'4 8.7
2017-Sep-16 21:00N 53°56' E 011°25'2 2.9
2017-Sep-16 20:23N 53°54' E 011°27'0 0.0
2017-Sep-16 19:59N 53°54' E 011°27'0 0.0
2017-Sep-16 19:29N 53°54' E 011°27'0 0.0
2017-Sep-16 18:59N 53°54' E 011°27'0 0.0
2017-Sep-16 18:29N 53°54' E 011°27'0 0.0
2017-Sep-16 17:59N 53°54' E 011°27'0 0.1
2017-Sep-16 17:29N 53°54' E 011°27'0 0.1
2017-Sep-16 16:59N 53°54' E 011°27'0 0.0
2017-Sep-16 16:29N 53°54' E 011°27'0 0.0
2017-Sep-16 15:59N 53°54' E 011°27'0 0.0
2017-Sep-16 15:29N 53°54' E 011°27'0 0.0
2017-Sep-16 14:59N 53°54' E 011°27'0 0.0
2017-Sep-16 14:29N 53°54' E 011°27'0 0.0
2017-Sep-16 13:59N 53°54' E 011°27'0 0.0
2017-Sep-16 13:29N 53°54' E 011°27'0 0.0
2017-Sep-16 12:59N 53°54' E 011°27'0 0.0
2017-Sep-16 12:29N 53°54' E 011°27'0 0.0
2017-Sep-16 11:59N 53°54' E 011°27'0 0.0
2017-Sep-16 11:29N 53°54' E 011°27'0 0.0
2017-Sep-16 10:59N 53°54' E 011°27'0 0.0
2017-Sep-16 10:29N 53°54' E 011°27'0 0.0
2017-Sep-16 09:59N 53°54' E 011°27'0 0.0
2017-Sep-16 09:29N 53°54' E 011°27'0 0.0
2017-Sep-16 08:59N 53°54' E 011°27'0 0.0
2017-Sep-16 08:29N 53°54' E 011°27'0 0.0
2017-Sep-16 07:59N 53°54' E 011°27'0 0.0
2017-Sep-16 07:29N 53°54' E 011°27'0 0.3
2017-Sep-16 06:59N 53°54' E 011°28'0 0.3
2017-Sep-16 06:29N 53°54' E 011°28'0 0.0
2017-Sep-16 05:59N 53°54' E 011°28'0 0.0
2017-Sep-16 05:29N 53°54' E 011°28'0 0.0
2017-Sep-16 04:59N 53°54' E 011°28'0 0.0
2017-Sep-16 04:29N 53°54' E 011°28'0 0.0
2017-Sep-16 03:53N 53°54' E 011°28'0 0.0
2017-Sep-16 03:29N 53°54' E 011°28'0 0.0
2017-Sep-16 02:59N 53°54' E 011°28'0 0.0
2017-Sep-16 02:29N 53°54' E 011°28'0 0.0
2017-Sep-16 01:59N 53°54' E 011°28'0 0.0
2017-Sep-16 01:26N 53°54' E 011°28'0 0.0
2017-Sep-16 00:59N 53°54' E 011°28'0 0.0
2017-Sep-16 00:29N 53°54' E 011°28'0 0.0
2017-Sep-15 23:59N 53°54' E 011°28'0 0.0
2017-Sep-15 23:29N 53°54' E 011°28'0 0.0
2017-Sep-15 22:59N 53°54' E 011°28'0 0.0
2017-Sep-15 22:29N 53°54' E 011°28'0 0.0
2017-Sep-15 21:59N 53°54' E 011°28'0 0.9
2017-Sep-15 21:31N 53°54' E 011°27'3 6.2
2017-Sep-15 21:00N 53°57' E 011°24'4 8.1
2017-Sep-15 20:31N 53°60' E 011°20'4 7.8
2017-Sep-15 20:00N 54°02' E 011°25'4 8.1
2017-Sep-15 19:30N 54°07' E 011°27'5 9.4
2017-Sep-15 19:00N 54°09' E 011°33'5 9.4
2017-Sep-15 18:29N 54°12' E 011°40'610.0
2017-Sep-15 17:55N 54°13' E 011°49'410.0
2017-Sep-15 17:30N 54°13' E 011°56'6 7.7
2017-Sep-15 16:44N 54°11' E 012°06'2 6.9
2017-Sep-15 16:30N 54°09' E 012°06'2 3.6
2017-Sep-15 16:00N 54°07' E 012°05'0 0.1
2017-Sep-15 14:41N 54°07' E 012°05'0 0.0
2017-Sep-15 14:29N 54°07' E 012°05'0 0.0
2017-Sep-15 13:43N 54°07' E 012°05'0 0.0
2017-Sep-15 11:40N 54°07' E 012°05'0 0.0
2017-Sep-15 10:43N 54°07' E 012°05'0 0.0
2017-Sep-15 10:28N 54°07' E 012°05'0 0.0
2017-Sep-15 09:34N 54°07' E 012°05'0 0.1
2017-Sep-15 09:28N 54°07' E 012°05'0 0.0
2017-Sep-15 08:28N 54°07' E 012°05'0 0.0
2017-Sep-15 07:40N 54°07' E 012°05'0 0.0
2017-Sep-15 06:25N 54°07' E 012°05'0 0.0
2017-Sep-15 04:16N 54°07' E 012°05'0 0.0
2017-Sep-15 03:58N 54°07' E 012°05'0 0.0
2017-Sep-15 02:58N 54°07' E 012°05'0 0.0
2017-Sep-15 00:13N 54°07' E 012°05'0 0.0
2017-Sep-14 23:55N 54°07' E 012°05'0 0.0
2017-Sep-14 23:19N 54°07' E 012°05'0 0.0
2017-Sep-14 21:13N 54°07' E 012°05'0 0.0
2017-Sep-14 20:07N 54°07' E 012°05'0 0.0
2017-Sep-14 17:52N 54°07' E 012°05'0 0.0
2017-Sep-14 17:10N 54°07' E 012°05'0 0.0
2017-Sep-14 16:52N 54°07' E 012°05'0 0.0
2017-Sep-14 14:43N 54°07' E 012°05'0 0.0
2017-Sep-14 12:28N 54°07' E 012°05'0 0.0
2017-Sep-14 11:55N 54°07' E 012°05'0 0.0
2017-Sep-14 11:28N 54°07' E 012°05'0 0.0
2017-Sep-14 10:28N 54°07' E 012°05'0 0.0
2017-Sep-14 08:40N 54°07' E 012°05'0 0.0
2017-Sep-14 08:28N 54°07' E 012°05'0 0.0
2017-Sep-14 07:43N 54°07' E 012°05'0 0.0
2017-Sep-14 07:25N 54°07' E 012°05'0 0.0
2017-Sep-14 06:52N 54°07' E 012°05'0 0.0
2017-Sep-14 05:52N 54°07' E 012°05'0 0.0
2017-Sep-14 05:30N 54°07' E 012°05'0 0.8
2017-Sep-14 05:00N 54°07' E 012°06'6 2.1
2017-Sep-14 01:55N 54°12' E 011°60'0 0.0
2017-Sep-14 00:12N 54°12' E 011°60'0 0.0
2017-Sep-13 23:51N 54°12' E 011°60'0 0.0
2017-Sep-13 23:30N 54°12' E 011°60'0 0.0
2017-Sep-13 23:00N 54°12' E 011°60'13 5.2
2017-Sep-13 20:26N 54°21' E 011°42'4 9.3
2017-Sep-13 20:00N 54°22' E 011°36'5 9.0
2017-Sep-13 19:30N 54°24' E 011°29'4 9.0
2017-Sep-13 19:00N 54°28' E 011°23'5 9.9
2017-Sep-13 18:30N 54°32' E 011°19'510.0
2017-Sep-13 18:00N 54°34' E 011°11'510.1
2017-Sep-13 17:30N 54°35' E 011°03'5 9.7
2017-Sep-13 17:00N 54°34' E 010°54'5 9.3
2017-Sep-13 16:30N 54°34' E 010°46'5 9.5
2017-Sep-13 16:00N 54°33' E 010°38'5 9.6
2017-Sep-13 15:30N 54°32' E 010°30'48 6.7
2017-Sep-13 08:26N 54°08' E 009°20'3 8.2
2017-Sep-13 08:00N 54°04' E 009°19'4 8.4
2017-Sep-13 07:31N 54°00' E 009°18'4 8.2
2017-Sep-13 07:01N 53°57' E 009°14'0 0.9
2017-Sep-13 06:30N 53°56' E 009°13'2 3.9
2017-Sep-13 06:00N 53°55' E 009°11'2 4.1
2017-Sep-13 05:30N 53°54' E 009°09'0 0.7
2017-Sep-13 05:00N 53°53' E 009°08'4 7.1
2017-Sep-13 04:30N 53°52' E 009°03'611.1
2017-Sep-13 04:00N 53°50' E 008°54'510.7
2017-Sep-13 03:30N 53°51' E 008°45'611.0
2017-Sep-13 03:00N 53°56' E 008°39'510.5
2017-Sep-13 02:30N 53°58' E 008°31'611.0
2017-Sep-13 02:00N 53°59' E 008°22'510.6
2017-Sep-13 01:30N 53°59' E 008°13'510.0
2017-Sep-13 00:59N 53°58' E 008°05'510.0
2017-Sep-13 00:30N 53°57' E 007°57'5 9.9
2017-Sep-12 23:58N 53°56' E 007°48'5 9.8
2017-Sep-12 23:29N 53°55' E 007°40'80 8.3
2017-Sep-12 13:44N 53°33' E 005°29'2 8.7
2017-Sep-12 13:30N 53°33' E 005°26'5 9.1
2017-Sep-12 13:00N 53°31' E 005°18'5 9.3
2017-Sep-12 12:30N 53°30' E 005°11'5 9.5
2017-Sep-12 12:00N 53°28' E 005°04'5 9.8
2017-Sep-12 11:30N 53°26' E 004°56'5 9.8
2017-Sep-12 11:00N 53°24' E 004°48'4 8.9
2017-Sep-12 10:30N 53°22' E 004°43'13 9.1
2017-Sep-12 09:04N 53°10' E 004°32'2 9.4
2017-Sep-12 08:49N 53°08' E 004°30'3 9.4
2017-Sep-12 08:29N 53°05' E 004°28'5 9.5
2017-Sep-12 08:00N 53°01' E 004°24'5 9.5
2017-Sep-12 07:30N 52°57' E 004°20'5 9.6
2017-Sep-12 07:00N 52°53' E 004°16'5 9.8
2017-Sep-12 06:30N 52°49' E 004°11'5 9.9
2017-Sep-12 06:00N 52°45' E 004°06'5 9.9
2017-Sep-12 05:30N 52°42' E 004°00'5 9.5
2017-Sep-12 05:00N 52°38' E 003°55'5 9.2
2017-Sep-12 04:30N 52°35' E 003°50'5 8.8
2017-Sep-12 03:59N 52°32' E 003°45'  

Dump ship's entire track history